^^
Grace C. Lehan Memorial Weather Station Historical Data
Daily Summary for June 11, 2021 Units:  Metric    English   Both
Daily Weekly Monthly Yearly
  High: Low: Average:
Temperature: 15.4 °C 1 °C 8.1 °C
Dew Point: 7.5 °C -0.8 °C 2.8 °C
Humidity: 90% 45.2% 71%
Wind Speed: 1.6km/h 0km/h 0.2km/h
Wind Gust: 9.7km/h - -
Wind- - SE
Pressure: 1027 hPa 1023.9 hPa -
Precipitation: 0 mm    
 
 
Tabular Data for June 11, 2021
Time Temperature Dew Point Pressure Wind Wind Speed Wind Gust Humidity Rainfall Rate (Hourly) solar
00:04 4.8 °C 0.3 °C 1024.3 hPa Calm     72.5% 0 mm 0 W/m2
00:09 4.8 °C 0.2 °C 1024.3 hPa Calm     71.9% 0 mm 0 W/m2
00:14 4.8 °C 0 °C 1024.3 hPa Calm     71% 0 mm 0 W/m2
00:19 4.9 °C 0 °C 1024.3 hPa Calm     70.6% 0 mm 0 W/m2
00:24 4.9 °C -0.1 °C 1024.3 hPa Calm     70% 0 mm 0 W/m2
00:29 4.9 °C -0.1 °C 1024.6 hPa NW 0.2 km/h 4.8 km/h 70% 0 mm 0 W/m2
00:34 5 °C 0.2 °C 1024.6 hPa Calm   4.8 km/h 71.3% 0 mm 0 W/m2
00:39 4.9 °C 0.3 °C 1024.6 hPa Calm     71.7% 0 mm 0 W/m2
00:44 4.9 °C 0.1 °C 1024.6 hPa Calm     70.8% 0 mm 0 W/m2
00:49 4.9 °C 0 °C 1024.6 hPa Calm     70.2% 0 mm 0 W/m2
00:54 5.1 °C 0.4 °C 1024.6 hPa Calm     71.8% 0 mm 0 W/m2
00:59 5.1 °C 0.4 °C 1024.6 hPa Calm     71.6% 0 mm 0 W/m2
01:04 5.1 °C 0.3 °C 1024.6 hPa Calm   1.6 km/h 71% 0 mm 0 W/m2
01:09 5 °C 0.2 °C 1024.6 hPa Calm   1.6 km/h 71% 0 mm 0 W/m2
01:14 4.9 °C 0.1 °C 1024.6 hPa NW 0.6 km/h 3.2 km/h 71% 0 mm 0 W/m2
01:19 4.8 °C 0 °C 1024.6 hPa NW 0.6 km/h 3.2 km/h 71% 0 mm 0 W/m2
01:24 4.8 °C 0 °C 1024.6 hPa Calm   3.2 km/h 71% 0 mm 0 W/m2
01:29 4.8 °C -0.1 °C 1024.6 hPa Calm   3.2 km/h 70.7% 0 mm 0 W/m2
01:34 4.8 °C -0.2 °C 1024.6 hPa NW 0.2 km/h 3.2 km/h 70% 0 mm 0 W/m2
01:39 4.9 °C 0.1 °C 1024.3 hPa Calm   3.2 km/h 70.9% 0 mm 0 W/m2
01:44 5.1 °C 0.1 °C 1024.3 hPa Calm   3.2 km/h 70.1% 0 mm 0 W/m2
01:49 5.2 °C -0.1 °C 1024.3 hPa Calm   3.2 km/h 69% 0 mm 0 W/m2
01:54 5.3 °C 0.1 °C 1024.3 hPa Calm   3.2 km/h 68.8% 0 mm 0 W/m2
01:59 5.4 °C 0.3 °C 1024.3 hPa Calm   3.2 km/h 69.6% 0 mm 0 W/m2
02:04 5.4 °C 0.6 °C 1024.3 hPa Calm   3.2 km/h 70.7% 0 mm 0 W/m2
02:09 5.3 °C 0.5 °C 1024.3 hPa Calm     71.1% 0 mm 0 W/m2
02:14 5.2 °C 0.5 °C 1024.3 hPa Calm     71.7% 0 mm 0 W/m2
02:19 5.1 °C 0.4 °C 1024.3 hPa Calm     72% 0 mm 0 W/m2
02:24 4.9 °C 0.4 °C 1024.3 hPa Calm     72.7% 0 mm 0 W/m2
02:29 4.8 °C 0.2 °C 1024.6 hPa Calm     72% 0 mm 0 W/m2
02:34 4.8 °C 0.2 °C 1024.6 hPa Calm     72% 0 mm 0 W/m2
02:39 4.7 °C 0.1 °C 1024.6 hPa Calm     72% 0 mm 0 W/m2
02:44 4.7 °C 0.1 °C 1024.3 hPa Calm     72% 0 mm 0 W/m2
02:49 4.7 °C 0.1 °C 1024.3 hPa NW 0.2 km/h 1.6 km/h 72% 0 mm 0 W/m2
02:54 4.8 °C 0.3 °C 1024.6 hPa Calm   1.6 km/h 72.8% 0 mm 0 W/m2
02:59 4.7 °C 0.3 °C 1024.3 hPa Calm   1.6 km/h 73% 0 mm 0 W/m2
03:04 4.7 °C 0.3 °C 1024.3 hPa Calm   1.6 km/h 73.1% 0 mm 0 W/m2
03:09 4.7 °C 0.6 °C 1024.3 hPa Calm     74.9% 0 mm 0 W/m2
03:14 4.5 °C 0.4 °C 1024.6 hPa Calm     75% 0 mm 0 W/m2
03:19 4.3 °C 0.3 °C 1024.6 hPa Calm     75.4% 0 mm 0 W/m2
03:24 4.1 °C 0.2 °C 1024.6 hPa Calm     76% 0 mm 0 W/m2
03:29 3.9 °C 0.1 °C 1024.6 hPa Calm     76.2% 0 mm 0 W/m2
03:34 3.7 °C 0.1 °C 1024.6 hPa Calm     77.2% 0 mm 0 W/m2
03:39 3.5 °C 0.1 °C 1024.6 hPa Calm     78.1% 0 mm 0 W/m2
03:44 3.3 °C 0 °C 1024.6 hPa Calm     79% 0 mm 0 W/m2
03:49 3.2 °C 0 °C 1024.6 hPa Calm     79.6% 0 mm 0 W/m2
03:54 3.1 °C 0.1 °C 1024.6 hPa Calm     80.6% 0 mm 0 W/m2
03:59 3 °C 0.1 °C 1024.6 hPa Calm     80.8% 0 mm 0 W/m2
04:00 2.9 °C 0 °C 1024.6 hPa Calm     81% 0 mm 0 W/m2
04:09 2.8 °C -0.1 °C 1024.9 hPa Calm     81% 0 mm 0 W/m2
04:14 2.7 °C -0.2 °C 1024.9 hPa Calm     81% 0 mm 0 W/m2
04:19 2.6 °C -0.2 °C 1024.9 hPa Calm     81.8% 0 mm 0 W/m2
04:24 2.6 °C -0.2 °C 1024.9 hPa Calm     82% 0 mm 0 W/m2
04:29 2.5 °C -0.2 °C 1024.9 hPa Calm     82.2% 0 mm 0 W/m2
04:34 2.4 °C -0.2 °C 1024.9 hPa Calm     83% 0 mm 0 W/m2
04:39 2.4 °C -0.2 °C 1025.3 hPa Calm     83% 0 mm 0 W/m2
04:44 2.4 °C -0.2 °C 1025.3 hPa Calm     83.4% 0 mm 0 W/m2
04:49 2.4 °C 0.1 °C 1024.9 hPa Calm     84.7% 0 mm 0 W/m2
04:54 2.5 °C 0.3 °C 1025.3 hPa Calm     85% 0 mm 0 W/m2
04:59 2.6 °C 0.2 °C 1025.3 hPa Calm     84.4% 0 mm 0 W/m2
05:04 2.5 °C 0.1 °C 1025.3 hPa Calm     84% 0 mm 0 W/m2
05:09 2.4 °C 0.1 °C 1025.3 hPa Calm     84% 0 mm 0 W/m2
05:14 2.3 °C -0.1 °C 1025.3 hPa Calm     84% 0 mm 0 W/m2
05:19 2.3 °C -0.2 °C 1025.3 hPa Calm     84% 0 mm 0 W/m2
05:24 2.2 °C -0.3 °C 1025.3 hPa Calm     84% 0 mm 0 W/m2
05:29 2.1 °C -0.3 °C 1025.3 hPa Calm     84.1% 0 mm 0 W/m2
05:34 2 °C -0.3 °C 1025.3 hPa Calm     85% 0 mm 0 W/m2
05:39 1.9 °C -0.3 °C 1025.3 hPa Calm     85% 0 mm 0 W/m2
05:44 1.8 °C -0.4 °C 1025.3 hPa Calm     85% 0 mm 0 W/m2
05:49 1.8 °C -0.4 °C 1025.3 hPa Calm     85.1% 0 mm 0 W/m2
05:54 1.7 °C -0.4 °C 1025.3 hPa Calm     86% 0 mm 0 W/m2
05:59 1.6 °C -0.6 °C 1025.6 hPa Calm     86% 0 mm 0 W/m2
06:04 1.4 °C -0.6 °C 1025.6 hPa Calm     86.5% 0 mm 0 W/m2
06:09 1.3 °C -0.4 °C 1025.6 hPa Calm     88.3% 0 mm 0 W/m2
06:14 1.3 °C -0.6 °C 1025.6 hPa Calm     87.2% 0 mm 0 W/m2
06:19 1.3 °C -0.4 °C 1025.6 hPa Calm     88% 0 mm 0 W/m2
06:24 1.3 °C -0.5 °C 1025.6 hPa Calm     88% 0 mm 0 W/m2
06:29 1.2 °C -0.5 °C 1025.6 hPa Calm     88% 0 mm 0 W/m2
06:34 1.2 °C -0.6 °C 1025.6 hPa Calm     88% 0 mm 0 W/m2
06:39 1.2 °C -0.6 °C 1025.6 hPa Calm     88% 0 mm 5 W/m2
06:44 1.1 °C -0.7 °C 1025.6 hPa Calm     88% 0 mm 5 W/m2
06:49 1.1 °C -0.7 °C 1025.6 hPa Calm     88% 0 mm 9 W/m2
06:54 1 °C -0.8 °C 1025.6 hPa Calm     88% 0 mm 12 W/m2
06:59 1 °C -0.7 °C 1026 hPa Calm     88.2% 0 mm 19 W/m2
07:04 1 °C -0.7 °C 1026 hPa Calm     88.7% 0 mm 26 W/m2
07:08 1 °C -0.6 °C 1026.3 hPa Calm     89% 0 mm 33 W/m2
07:14 1.1 °C -0.5 °C 1026.3 hPa Calm     89% 0 mm 42 W/m2
07:19 1.2 °C -0.4 °C 1026.3 hPa Calm     89.1% 0 mm 30 W/m2
07:24 1.3 °C -0.1 °C 1026.3 hPa Calm     90% 0 mm 32 W/m2
07:29 1.4 °C 0 °C 1026.3 hPa Calm     90% 0 mm 37 W/m2
07:34 1.6 °C 0.1 °C 1026.6 hPa Calm     90% 0 mm 54 W/m2
07:39 1.7 °C 0.3 °C 1026.6 hPa Calm     90% 0 mm 53 W/m2
07:44 1.9 °C 0.4 °C 1026.6 hPa Calm     90% 0 mm 54 W/m2
07:49 2.1 °C 0.6 °C 1026.6 hPa Calm     90% 0 mm 74 W/m2
07:54 2.3 °C 0.8 °C 1026.6 hPa Calm     90% 0 mm 178 W/m2
07:59 2.6 °C 1.1 °C 1026.6 hPa Calm     90% 0 mm 225 W/m2
08:00 2.7 °C 1.3 °C 1026.6 hPa Calm     90% 0 mm 204 W/m2
08:09 3.6 °C 2 °C 1027 hPa Calm     89.5% 0 mm 213 W/m2
08:14 4.2 °C 2.2 °C 1027 hPa Calm     86.7% 0 mm 262 W/m2
08:19 4.9 °C 2.2 °C 1027 hPa Calm     82.6% 0 mm 287 W/m2
08:24 5.6 °C 2.2 °C 1026.6 hPa NNW 0.3 km/h 4.8 km/h 78.9% 0 mm 301 W/m2
08:29 6.2 °C 2.2 °C 1026.6 hPa NNW 0.2 km/h 4.8 km/h 75.8% 0 mm 315 W/m2
08:34 6.7 °C 2.2 °C 1026.6 hPa NNW 1 km/h 4.8 km/h 72.8% 0 mm 327 W/m2
08:39 7.2 °C 2.2 °C 1027 hPa Calm   4.8 km/h 70.9% 0 mm 341 W/m2
08:44 7.6 °C 2.3 °C 1027 hPa North 0.5 km/h 4.8 km/h 69.2% 0 mm 348 W/m2
08:49 7.9 °C 2.3 °C 1027 hPa North 0.5 km/h 6.4 km/h 67.8% 0 mm 352 W/m2
08:54 8.3 °C 2.1 °C 1027 hPa NNE 0.8 km/h 6.4 km/h 65.3% 0 mm 371 W/m2
08:59 8.5 °C 1.9 °C 1026.6 hPa NNE 0.5 km/h 6.4 km/h 63.6% 0 mm 376 W/m2
09:04 8.6 °C 1.6 °C 1027 hPa NNE 0.8 km/h 6.4 km/h 61.4% 0 mm 390 W/m2
09:09 8.4 °C 1.2 °C 1027 hPa NE 1 km/h 4.8 km/h 60.3% 0 mm 390 W/m2
09:14 8.3 °C 1.3 °C 1027 hPa NE 0.2 km/h 4.8 km/h 61.4% 0 mm 348 W/m2
09:19 8.3 °C 1.8 °C 1027 hPa Calm   4.8 km/h 63.5% 0 mm 279 W/m2
09:24 8.3 °C 1.4 °C 1027 hPa NE 1 km/h 4.8 km/h 61.7% 0 mm 341 W/m2
09:29 8.2 °C 1.4 °C 1027 hPa NE 0.2 km/h 4.8 km/h 62% 0 mm 353 W/m2
09:34 8.2 °C 1.3 °C 1027 hPa Calm   4.8 km/h 61.8% 0 mm 116 W/m2
09:39 8.1 °C 1.3 °C 1027 hPa Calm     62.2% 0 mm 90 W/m2
09:44 8.1 °C 1.1 °C 1027 hPa Calm     61.5% 0 mm 185 W/m2
09:49 8.1 °C 1.3 °C 1027 hPa Calm     62.4% 0 mm 221 W/m2
09:54 8.2 °C 1.6 °C 1027 hPa NE 0.2 km/h 1.6 km/h 63% 0 mm 221 W/m2
09:59 8.4 °C 1.8 °C 1027 hPa Calm   1.6 km/h 62.8% 0 mm 179 W/m2
10:04 8.7 °C 1.7 °C 1027 hPa Calm   1.6 km/h 61.8% 0 mm 179 W/m2
10:09 8.9 °C 1.9 °C 1027 hPa Calm     61.2% 0 mm 439 W/m2
10:14 9.3 °C 1.9 °C 1027 hPa NE 0.2 km/h 3.2 km/h 60.1% 0 mm 487 W/m2
10:19 9.8 °C 2.1 °C 1027 hPa NE 0.2 km/h 3.2 km/h 58.9% 0 mm 483 W/m2
10:24 10.3 °C 2.1 °C 1027 hPa NE 0.8 km/h 4.8 km/h 56.8% 0 mm 504 W/m2
10:29 10.8 °C 2.3 °C 1027 hPa NE 0.3 km/h 4.8 km/h 55.9% 0 mm 504 W/m2
10:34 11.3 °C 2.3 °C 1027 hPa Calm   4.8 km/h 53.9% 0 mm 490 W/m2
10:39 11.7 °C 2.3 °C 1027 hPa Calm     52.6% 0 mm 436 W/m2
10:44 11.9 °C 2.4 °C 1027 hPa Calm     52% 0 mm 378 W/m2
10:49 12.2 °C 2.2 °C 1027 hPa Calm     50.5% 0 mm 229 W/m2
10:54 12.3 °C 2.3 °C 1027 hPa Calm   1.6 km/h 50.5% 0 mm 350 W/m2
10:59 12.3 °C 2.3 °C 1027 hPa Calm   1.6 km/h 50.5% 0 mm 281 W/m2
11:04 12.3 °C 2.4 °C 1026.6 hPa Calm   1.6 km/h 50.7% 0 mm 234 W/m2
11:09 12.3 °C 2.4 °C 1026.6 hPa Calm   1.6 km/h 50.6% 0 mm 315 W/m2
11:14 12.4 °C 2.5 °C 1026.6 hPa Calm   1.6 km/h 50.7% 0 mm 195 W/m2
11:19 12.5 °C 1.9 °C 1026.3 hPa Calm   1.6 km/h 48.5% 0 mm 188 W/m2
11:24 12.6 °C 1.4 °C 1026.3 hPa NE 0.2 km/h 1.6 km/h 46.6% 0 mm 237 W/m2
11:29 12.6 °C 1.6 °C 1026.3 hPa Calm   1.6 km/h 47.1% 0 mm 262 W/m2
11:34 12.6 °C 1.7 °C 1026.3 hPa Calm   1.6 km/h 47.5% 0 mm 316 W/m2
11:39 12.7 °C 1.8 °C 1026.3 hPa Calm     47.4% 0 mm 225 W/m2
11:44 12.8 °C 1.3 °C 1026 hPa NE 0.5 km/h 4.8 km/h 45.5% 0 mm 190 W/m2
11:49 12.8 °C 1.3 °C 1026 hPa Calm   4.8 km/h 45.2% 0 mm 218 W/m2
11:54 12.9 °C 1.6 °C 1025.6 hPa Calm   4.8 km/h 46% 0 mm 200 W/m2
11:59 13.1 °C 2 °C 1025.6 hPa Calm   4.8 km/h 47% 0 mm 174 W/m2
12:00 13.1 °C 2.3 °C 1025.3 hPa Calm   4.8 km/h 48% 0 mm 123 W/m2
12:09 13.3 °C 2 °C 1025.6 hPa Calm     46.1% 0 mm 167 W/m2
12:12 13.4 °C 2.1 °C 1025.3 hPa Calm     46% 0 mm 218 W/m2
13:00 13.9 °C 2.5 °C 1024.6 hPa Calm   4.8 km/h 46% 0 mm 135 W/m2
14:00 15.4 °C 4.2 °C 1024.3 hPa Calm   6.4 km/h 47% 0 mm 188 W/m2
14:30 14.9 °C 4.3 °C 1024.3 hPa ESE 1.6 km/h 9.7 km/h 49% 0 mm 104 W/m2
15:00 14.3 °C 4.3 °C 1024.6 hPa Calm   9.7 km/h 51% 0 mm 63 W/m2
15:30 13.9 °C 4.3 °C 1024.6 hPa Calm   6.4 km/h 52% 0 mm 51 W/m2
16:04 13.6 °C 4.6 °C 1024.9 hPa South 0.3 km/h 1.6 km/h 54.7% 0 mm 16 W/m2
16:09 13.5 °C 4.6 °C 1024.9 hPa South 0.2 km/h 3.2 km/h 55% 0 mm 14 W/m2
16:14 13.4 °C 4.6 °C 1024.6 hPa SSE 0.3 km/h 8 km/h 55.3% 0 mm 12 W/m2
16:19 13.2 °C 4.7 °C 1024.6 hPa Calm   8 km/h 56% 0 mm 9 W/m2
16:24 13.1 °C 4.7 °C 1024.6 hPa Calm   8 km/h 56.5% 0 mm 5 W/m2
16:29 13 °C 4.7 °C 1024.9 hPa SE 0.2 km/h 8 km/h 57.1% 0 mm 0 W/m2
16:34 12.9 °C 4.6 °C 1024.9 hPa SE 0.2 km/h 8 km/h 57.2% 0 mm 0 W/m2
16:39 12.8 °C 4.8 °C 1024.9 hPa Calm   1.6 km/h 58% 0 mm 0 W/m2
16:44 12.7 °C 4.7 °C 1024.9 hPa SE 0.2 km/h 4.8 km/h 58% 0 mm 0 W/m2
16:49 12.7 °C 4.7 °C 1024.9 hPa Calm   4.8 km/h 58.4% 0 mm 0 W/m2
16:54 12.6 °C 4.8 °C 1024.9 hPa Calm   4.8 km/h 59% 0 mm 0 W/m2
16:59 12.4 °C 4.9 °C 1024.9 hPa Calm   4.8 km/h 59.9% 0 mm 0 W/m2
17:04 12.4 °C 4.9 °C 1024.9 hPa SE 0.5 km/h 4.8 km/h 60.3% 0 mm 0 W/m2
17:09 12.4 °C 5.1 °C 1024.9 hPa SSW 0.2 km/h 4.8 km/h 61% 0 mm 0 W/m2
17:14 12.4 °C 5.2 °C 1024.9 hPa Calm   4.8 km/h 61.3% 0 mm 0 W/m2
17:19 12.3 °C 5.3 °C 1024.9 hPa Calm   4.8 km/h 62% 0 mm 0 W/m2
17:24 12.3 °C 5.3 °C 1024.9 hPa Calm   4.8 km/h 62% 0 mm 0 W/m2
17:29 12.3 °C 5.2 °C 1025.3 hPa Calm   4.8 km/h 62.1% 0 mm 0 W/m2
17:34 12.2 °C 5.4 °C 1025.3 hPa Calm   4.8 km/h 63% 0 mm 0 W/m2
17:39 12.1 °C 5.3 °C 1025.3 hPa Calm   1.6 km/h 63% 0 mm 0 W/m2
17:44 12 °C 5.3 °C 1025.3 hPa Calm   1.6 km/h 63.5% 0 mm 0 W/m2
17:49 11.9 °C 5.3 °C 1025.6 hPa South 0.2 km/h 3.2 km/h 64% 0 mm 0 W/m2
17:54 11.8 °C 5.4 °C 1025.6 hPa Calm   3.2 km/h 65% 0 mm 0 W/m2
17:59 11.7 °C 5.4 °C 1025.6 hPa Calm   3.2 km/h 65% 0 mm 0 W/m2
18:04 11.7 °C 5.4 °C 1025.6 hPa Calm   3.2 km/h 65.6% 0 mm 0 W/m2
18:09 11.7 °C 5.5 °C 1025.6 hPa Calm     66% 0 mm 0 W/m2
18:14 11.6 °C 5.5 °C 1025.6 hPa Calm     66% 0 mm 0 W/m2
18:19 11.6 °C 5.7 °C 1025.6 hPa South 0.2 km/h 3.2 km/h 66.8% 0 mm 0 W/m2
18:24 11.6 °C 5.6 °C 1025.6 hPa Calm   3.2 km/h 66.6% 0 mm 0 W/m2
18:29 11.6 °C 5.6 °C 1025.6 hPa Calm   3.2 km/h 67% 0 mm 0 W/m2
18:34 11.5 °C 5.6 °C 1026 hPa Calm   3.2 km/h 67% 0 mm 0 W/m2
18:39 11.4 °C 5.7 °C 1026 hPa Calm     67.7% 0 mm 0 W/m2
18:44 11.4 °C 5.7 °C 1025.6 hPa Calm     68% 0 mm 0 W/m2
18:49 11.4 °C 5.7 °C 1025.3 hPa Calm     68% 0 mm 0 W/m2
18:54 11.4 °C 5.7 °C 1025.3 hPa Calm     68% 0 mm 0 W/m2
18:59 11.3 °C 5.7 °C 1025.3 hPa Calm   1.6 km/h 68.3% 0 mm 0 W/m2
19:04 11.3 °C 5.8 °C 1025.6 hPa Calm   1.6 km/h 69% 0 mm 0 W/m2
19:09 11.3 °C 5.8 °C 1025.3 hPa Calm     69% 0 mm 0 W/m2
19:14 11.3 °C 6.1 °C 1025.3 hPa Calm   1.6 km/h 69.9% 0 mm 0 W/m2
19:19 11.3 °C 6.1 °C 1024.9 hPa SSE 0.5 km/h 4.8 km/h 70% 0 mm 0 W/m2
19:24 11.3 °C 6.1 °C 1024.9 hPa SE 0.6 km/h 4.8 km/h 70% 0 mm 0 W/m2
19:29 11.3 °C 6.1 °C 1024.9 hPa ESE 0.5 km/h 4.8 km/h 70.3% 0 mm 0 W/m2
19:34 11.3 °C 6.2 °C 1024.9 hPa Calm   4.8 km/h 70.4% 0 mm 0 W/m2
19:39 11.3 °C 6.3 °C 1025.3 hPa ESE 1.1 km/h 4.8 km/h 70.9% 0 mm 0 W/m2
19:44 11.4 °C 6.3 °C 1024.9 hPa ESE 0.8 km/h 6.4 km/h 71% 0 mm 0 W/m2
19:49 11.4 °C 6.4 °C 1024.9 hPa ESE 0.5 km/h 6.4 km/h 71% 0 mm 0 W/m2
19:54 11.4 °C 6.4 °C 1024.9 hPa Calm   6.4 km/h 71% 0 mm 0 W/m2
19:59 11.4 °C 6.4 °C 1024.9 hPa ESE 0.6 km/h 6.4 km/h 71% 0 mm 0 W/m2
20:09 11.4 °C 6.4 °C 1024.9 hPa ESE 0.2 km/h 4.8 km/h 71% 0 mm 0 W/m2
20:14 11.4 °C 6.4 °C 1024.9 hPa ESE 0.5 km/h 4.8 km/h 71% 0 mm 0 W/m2
20:19 11.5 °C 6.6 °C 1024.9 hPa ESE 0.5 km/h 4.8 km/h 72% 0 mm 0 W/m2
20:24 11.5 °C 6.6 °C 1024.6 hPa ESE 0.2 km/h 4.8 km/h 72% 0 mm 0 W/m2
20:29 11.5 °C 6.6 °C 1024.6 hPa Calm   4.8 km/h 72% 0 mm 0 W/m2
20:34 11.5 °C 6.7 °C 1024.6 hPa ESE 0.6 km/h 4.8 km/h 72% 0 mm 0 W/m2
20:39 11.6 °C 6.7 °C 1024.3 hPa ESE 0.2 km/h 4.8 km/h 72% 0 mm 0 W/m2
20:44 11.6 °C 6.8 °C 1024.3 hPa ESE 0.5 km/h 4.8 km/h 72.3% 0 mm 0 W/m2
20:49 11.6 °C 6.8 °C 1024.6 hPa Calm   4.8 km/h 72.4% 0 mm 0 W/m2
20:54 11.6 °C 6.8 °C 1024.6 hPa ESE 0.5 km/h 4.8 km/h 72.4% 0 mm 0 W/m2
20:59 11.6 °C 6.9 °C 1024.6 hPa ESE 0.2 km/h 4.8 km/h 73% 0 mm 0 W/m2
21:04 11.7 °C 7 °C 1024.6 hPa Calm   4.8 km/h 73% 0 mm 0 W/m2
21:09 11.7 °C 7 °C 1024.6 hPa Calm   1.6 km/h 73% 0 mm 0 W/m2
21:14 11.7 °C 7 °C 1024.6 hPa ESE 0.5 km/h 6.4 km/h 73% 0 mm 0 W/m2
21:19 11.7 °C 7 °C 1024.6 hPa ESE 0.2 km/h 6.4 km/h 73% 0 mm 0 W/m2
21:24 11.7 °C 7 °C 1024.6 hPa ESE 0.2 km/h 6.4 km/h 73% 0 mm 0 W/m2
21:29 11.7 °C 7.1 °C 1024.9 hPa Calm   6.4 km/h 73.4% 0 mm 0 W/m2
21:34 11.7 °C 7.2 °C 1024.9 hPa Calm   6.4 km/h 74% 0 mm 0 W/m2
21:39 11.7 °C 7.2 °C 1024.9 hPa Calm     74% 0 mm 0 W/m2
21:44 11.7 °C 7.2 °C 1024.9 hPa Calm     74% 0 mm 0 W/m2
21:49 11.7 °C 7.2 °C 1024.9 hPa Calm     74% 0 mm 0 W/m2
21:54 11.7 °C 7.2 °C 1024.6 hPa Calm     74% 0 mm 0 W/m2
21:59 11.7 °C 7.3 °C 1024.6 hPa ESE 0.6 km/h 4.8 km/h 74.8% 0 mm 0 W/m2
22:04 11.7 °C 7.4 °C 1024.6 hPa Calm   4.8 km/h 75% 0 mm 0 W/m2
22:09 11.7 °C 7.4 °C 1024.6 hPa ESE 0.5 km/h 4.8 km/h 75% 0 mm 0 W/m2
22:14 11.7 °C 7.4 °C 1024.6 hPa Calm   4.8 km/h 75% 0 mm 0 W/m2
22:19 11.7 °C 7.4 °C 1024.6 hPa ESE 0.3 km/h 4.8 km/h 75% 0 mm 0 W/m2
22:24 11.7 °C 7.4 °C 1024.6 hPa ESE 0.5 km/h 6.4 km/h 75% 0 mm 0 W/m2
22:29 11.7 °C 7.4 °C 1024.6 hPa East 1.1 km/h 8 km/h 75% 0 mm 0 W/m2
22:34 11.7 °C 7.4 °C 1024.3 hPa East 0.8 km/h 8 km/h 75% 0 mm 0 W/m2
22:36 11.7 °C 7.4 °C 1024.3 hPa East 1.1 km/h 4.8 km/h 75% 0 mm 0 W/m2
23:09 11.8 °C 7.3 °C 1024.6 hPa Calm     74% 0 mm 0 W/m2
23:14 11.8 °C 7.3 °C 1024.3 hPa Calm     74% 0 mm 0 W/m2
23:19 11.8 °C 7.3 °C 1024.6 hPa Calm     74% 0 mm 0 W/m2
23:24 11.8 °C 7.4 °C 1024.6 hPa East 0.8 km/h 4.8 km/h 74.5% 0 mm 0 W/m2
23:29 11.8 °C 7.3 °C 1024.3 hPa Calm   4.8 km/h 74.3% 0 mm 0 W/m2
23:34 11.8 °C 7.4 °C 1024.3 hPa Calm   4.8 km/h 74.4% 0 mm 0 W/m2
23:39 11.8 °C 7.5 °C 1024.3 hPa East 1.1 km/h 4.8 km/h 75% 0 mm 0 W/m2
23:44 11.8 °C 7.5 °C 1023.9 hPa Calm   4.8 km/h 75% 0 mm 0 W/m2
23:49 11.8 °C 7.5 °C 1024.3 hPa Calm   4.8 km/h 75% 0 mm 0 W/m2
23:54 11.8 °C 7.5 °C 1024.3 hPa Calm   4.8 km/h 75% 0 mm 0 W/m2
23:59 11.8 °C 7.5 °C 1024.3 hPa Calm   4.8 km/h 75% 0 mm 0 W/m2
Hartford County Weather
Compliments of Weather Underground - 4 mb